NCAR-RAP Real-Time Weather Data

Output produced by METARs form (08 May 2021  00:45 UTC)
found at http://weather.rap.ucar.edu/surface/
 
KPIH 072353Z 23014KT 10SM BKN090 15/01 A2992 RMK AO2 SLP105 T01500006 10233 20150 50006
KPIH 072256Z 27020G28KT 10SM FEW080 BKN100 16/01 A2993 RMK AO2 T01610006
KPIH 072253Z 27018G28KT 10SM FEW080 SCT100 16/01 A2993 RMK AO2 PK WND 28033/2222 SLP103 T01610006
KPIH 072153Z 26024G35KT 10SM SCT100 20/01 A2992 RMK AO2 PK WND 27037/2109 SLP096 T02000006
KPIH 072053Z 27025G34KT 10SM CLR 22/01 A2990 RMK AO2 PK WND 26034/2053 SLP090 T02170006 56006
KPIH 071953Z 26022G32KT 10SM CLR 21/00 A2991 RMK AO2 PK WND 25034/1856 SLP092 T02110000
KPIH 071853Z 25028G35KT 10SM FEW090 22/01 A2992 RMK AO2 PK WND 24038/1800 SLP092 T02220011
KPIH 071753Z 25028G35KT 10SM CLR 22/01 A2992 RMK AO2 PK WND 26036/1711 SLP093 T02170011 10217 20117 54000
KPIH 071653Z 25025G34KT 10SM CLR 21/02 A2992 RMK AO2 PK WND 25034/1644 SLP086 T02110022
KPIH 071553Z 23021G30KT 10SM CLR 18/04 A2993 RMK AO2 PK WND 22032/1537 SLP092 T01780039
KPIH 071453Z 22020G30KT 10SM CLR 16/04 A2992 RMK AO2 PK WND 23034/1411 SLP093 T01610039 51020
KPIH 071353Z 24024G32KT 10SM CLR 16/03 A2991 RMK AO2 PK WND 24033/1257 SLP082 T01610033
KPIH 071253Z 23021G27KT 10SM FEW080 15/01 A2988 RMK AO2 PK WND 23031/1216 SLP070 T01500006
KPIH 071153Z 24016KT 10SM SCT080 13/03 A2986 RMK AO2 SLP063 T01280028 10189 20106 55004
KPIH 071053Z AUTO 00000KT 10SM CLR 13/02 A2982 RMK AO2 SLP051 T01280017